Time;durP1;ratioP1;P1;durP2;ratioP2;P2;SDS_P1;SDS_P2;PMS_P1;PMS_P2;Temp;Humidity;BMP_temperature;BMP_pressure;BME280_temperature;BME280_humidity;BME280_pressure;Samples;Min_cycle;Max_cycle;Signal;HPM_P1;HPM_P2
2023/05/27 00:01:06;;;;;;;11.00;6.78;;;;;;;15.91;63.19;96914.88;5070439;28;20452;-74
2023/05/27 00:03:34;;;;;;;11.30;6.80;;;;;;;15.91;63.70;96912.94;5069696;28;20492;-75
2023/05/27 00:06:02;;;;;;;17.35;7.60;;;;;;;15.90;64.29;96911.34;5071416;28;20053;-75
2023/05/27 00:08:28;;;;;;;10.40;7.13;;;;;;;15.79;63.20;96909.34;5069902;28;20089;-74
2023/05/27 00:10:55;;;;;;;12.18;6.70;;;;;;;15.89;64.43;96907.00;5070258;28;20051;-75
2023/05/27 00:13:21;;;;;;;11.73;6.72;;;;;;;15.91;64.30;96904.69;5070517;28;20099;-74
2023/05/27 00:15:48;;;;;;;9.23;6.45;;;;;;;15.89;64.15;96901.50;5070182;28;20415;-74
2023/05/27 00:18:15;;;;;;;13.45;7.47;;;;;;;15.83;63.97;96902.84;5070495;28;20051;-74
2023/05/27 00:20:43;;;;;;;10.88;6.75;;;;;;;15.83;63.47;96902.84;5067673;28;20053;-74
2023/05/27 00:23:09;;;;;;;10.27;6.85;;;;;;;15.82;64.76;96906.75;5069138;28;20040;-74
2023/05/27 00:25:36;;;;;;;12.15;7.10;;;;;;;15.83;63.56;96911.09;5068652;28;20060;-74
2023/05/27 00:28:02;;;;;;;14.50;7.10;;;;;;;15.81;63.11;96904.31;5070487;28;20049;-75
2023/05/27 00:30:29;;;;;;;11.02;6.40;;;;;;;15.79;63.06;96910.16;5070381;28;20231;-74
2023/05/27 00:32:56;;;;;;;9.07;6.20;;;;;;;15.74;62.92;96907.63;5071113;28;20055;-74
2023/05/27 00:35:22;;;;;;;8.70;6.18;;;;;;;15.70;63.43;96903.94;5070745;28;20044;-74
2023/05/27 00:37:50;;;;;;;10.98;6.45;;;;;;;15.64;63.58;96911.59;5070466;28;20043;-74
2023/05/27 00:40:22;;;;;;;9.85;6.20;;;;;;;15.60;63.58;96916.09;5068927;28;20070;-74
2023/05/27 00:42:48;;;;;;;13.15;6.60;;;;;;;15.57;64.85;96910.50;5070795;28;20044;-74
2023/05/27 00:45:15;;;;;;;10.43;6.63;;;;;;;15.52;63.86;96913.44;5070270;28;20048;-74
2023/05/27 00:47:41;;;;;;;10.85;6.63;;;;;;;15.47;63.30;96905.41;5083431;28;20061;-73
2023/05/27 00:50:09;;;;;;;11.02;6.55;;;;;;;15.45;63.50;96913.16;5068742;28;20518;-74
2023/05/27 00:52:35;;;;;;;11.05;6.68;;;;;;;15.42;64.19;96911.13;5071031;28;20048;-73
2023/05/27 00:55:04;;;;;;;11.13;7.15;;;;;;;15.38;64.81;96903.53;5069407;28;20404;-75
2023/05/27 00:57:30;;;;;;;11.15;6.68;;;;;;;15.36;64.51;96913.25;5066414;28;20044;-74
2023/05/27 00:59:56;;;;;;;10.10;6.70;;;;;;;15.34;64.84;96901.78;5074268;28;20051;-74
2023/05/27 01:02:24;;;;;;;9.20;6.03;;;;;;;15.33;64.42;96901.00;5069305;28;20055;-73
2023/05/27 01:04:51;;;;;;;10.43;6.03;;;;;;;15.31;64.56;96903.28;5071268;28;20040;-74
2023/05/27 01:07:23;;;;;;;11.52;6.28;;;;;;;15.30;64.18;96901.69;5068270;28;20044;-74
2023/05/27 01:09:59;;;;;;;9.93;6.47;;;;;;;15.28;64.07;96903.94;5069628;28;20056;-73
2023/05/27 01:12:36;;;;;;;12.85;7.05;;;;;;;15.22;63.84;96891.56;5066048;28;20047;-74
2023/05/27 01:15:05;;;;;;;9.57;5.78;;;;;;;15.22;63.64;96896.25;5068364;28;20044;-74
2023/05/27 01:17:32;;;;;;;11.32;6.38;;;;;;;15.22;64.42;96899.81;5070816;28;20048;-73
2023/05/27 01:20:01;;;;;;;9.63;6.22;;;;;;;15.18;64.58;96903.53;5068727;28;20496;-74
2023/05/27 01:22:30;;;;;;;10.10;6.68;;;;;;;15.16;64.57;96894.84;5069406;28;20389;-73
2023/05/27 01:24:57;;;;;;;9.80;6.57;;;;;;;15.11;63.81;96890.38;5069451;28;20044;-73
2023/05/27 01:27:24;;;;;;;8.55;6.20;;;;;;;15.09;63.47;96896.19;5067378;28;20175;-74
2023/05/27 01:29:51;;;;;;;8.98;5.78;;;;;;;15.08;63.67;96893.75;5068488;28;20040;-74
2023/05/27 01:32:22;;;;;;;11.45;6.00;;;;;;;15.04;64.61;96895.59;5069192;28;20044;-73
2023/05/27 01:34:58;;;;;;;11.20;6.13;;;;;;;14.99;65.08;96895.78;5062065;28;20033;-74
2023/05/27 01:37:26;;;;;;;12.48;6.03;;;;;;;14.99;64.84;96887.56;5068851;28;20037;-74
2023/05/27 01:39:54;;;;;;;12.85;6.72;;;;;;;14.97;65.03;96892.56;5066477;28;20067;-74
2023/05/27 01:42:21;;;;;;;10.00;6.00;;;;;;;14.92;65.42;96890.00;5068383;28;20423;-74
2023/05/27 01:44:49;;;;;;;10.43;6.50;;;;;;;14.93;64.78;96886.97;5066769;28;20075;-74
2023/05/27 01:47:15;;;;;;;10.77;6.30;;;;;;;14.94;63.94;96882.28;5071213;28;20050;-74
2023/05/27 01:49:42;;;;;;;9.05;6.32;;;;;;;14.94;65.25;96882.28;5069080;28;20052;-74
2023/05/27 01:52:09;;;;;;;12.15;6.50;;;;;;;14.91;64.75;96882.94;5062852;28;20130;-74
2023/05/27 01:54:36;;;;;;;10.57;5.90;;;;;;;14.90;64.46;96889.56;5068901;28;20048;-73
2023/05/27 01:57:06;;;;;;;10.55;6.20;;;;;;;14.84;63.74;96889.75;5068549;28;20123;-74
2023/05/27 01:59:32;;;;;;;10.40;6.20;;;;;;;14.81;64.21;96884.91;5068123;28;20048;-74
2023/05/27 02:01:59;;;;;;;9.68;6.40;;;;;;;14.79;64.97;96880.91;5063409;28;20045;-74
2023/05/27 02:04:25;;;;;;;11.43;6.50;;;;;;;14.74;64.07;96883.84;5065963;28;20044;-73
2023/05/27 02:06:52;;;;;;;8.85;6.03;;;;;;;14.70;64.02;96883.69;5069453;28;20046;-74
2023/05/27 02:09:18;;;;;;;10.43;6.03;;;;;;;14.63;64.23;96890.84;5067716;28;20122;-73
2023/05/27 02:11:45;;;;;;;10.45;6.68;;;;;;;14.58;64.61;96880.88;5068218;28;20040;-75
2023/05/27 02:14:13;;;;;;;10.27;6.20;;;;;;;14.52;64.81;96884.94;5067492;28;20052;-73
2023/05/27 02:16:39;;;;;;;9.52;6.18;;;;;;;14.48;64.84;96886.72;5077061;28;20048;-73
2023/05/27 02:19:06;;;;;;;10.35;6.43;;;;;;;14.41;64.56;96880.91;5067744;28;20083;-74
2023/05/27 02:21:33;;;;;;;9.07;6.13;;;;;;;14.34;64.61;96882.22;5068212;28;20048;-73
2023/05/27 02:23:59;;;;;;;13.35;6.32;;;;;;;14.27;65.01;96881.16;5068605;28;20043;-74
2023/05/27 02:26:26;;;;;;;10.55;6.10;;;;;;;14.19;65.24;96877.31;5071092;28;20167;-74
2023/05/27 02:28:52;;;;;;;10.57;6.13;;;;;;;14.13;65.41;96886.84;5071849;28;20044;-74
2023/05/27 02:31:20;;;;;;;12.30;7.22;;;;;;;14.05;65.54;96883.00;5068806;28;20040;-74
2023/05/27 02:33:47;;;;;;;9.10;6.22;;;;;;;14.00;65.56;96879.66;5071986;28;20036;-74
2023/05/27 02:36:13;;;;;;;10.88;6.63;;;;;;;13.94;66.01;96873.53;5077531;28;20055;-74
2023/05/27 02:38:40;;;;;;;11.07;6.72;;;;;;;13.86;66.35;96876.28;5068748;28;20049;-73
2023/05/27 02:41:06;;;;;;;13.50;7.60;;;;;;;13.71;66.79;96875.69;5070241;28;20078;-74
2023/05/27 02:43:33;;;;;;;9.95;6.70;;;;;;;13.58;67.51;96872.00;5070046;28;20050;-74
2023/05/27 02:45:59;;;;;;;11.90;6.93;;;;;;;13.50;68.10;96869.28;5071230;28;20048;-75
2023/05/27 02:48:27;;;;;;;12.07;7.43;;;;;;;13.41;68.75;96876.69;5071351;28;20040;-75
2023/05/27 02:50:53;;;;;;;12.02;7.30;;;;;;;13.35;69.13;96869.78;5070191;28;20045;-75
2023/05/27 02:53:20;;;;;;;9.25;6.50;;;;;;;13.30;69.39;96868.00;5073690;28;20428;-74
2023/05/27 02:55:46;;;;;;;11.82;7.30;;;;;;;13.28;70.21;96873.00;5074277;28;20060;-74
2023/05/27 02:58:13;;;;;;;11.80;7.00;;;;;;;13.24;69.97;96875.56;5069222;28;20040;-74
2023/05/27 03:00:41;;;;;;;12.25;7.43;;;;;;;13.26;70.80;96867.88;5069970;28;20040;-73
2023/05/27 03:03:07;;;;;;;12.85;7.03;;;;;;;13.22;71.16;96868.84;5074449;28;20040;-74
2023/05/27 03:05:36;;;;;;;12.85;7.15;;;;;;;13.22;71.21;96869.63;5062619;28;20044;-74
2023/05/27 03:08:02;;;;;;;12.85;7.55;;;;;;;13.22;71.35;96863.38;5070264;28;20044;-75
2023/05/27 03:10:29;;;;;;;11.18;7.03;;;;;;;13.20;71.22;96858.16;5064590;28;20045;-74
2023/05/27 03:12:55;;;;;;;10.70;7.32;;;;;;;13.20;72.47;96860.91;5067958;28;20060;-74
2023/05/27 03:15:22;;;;;;;11.02;6.93;;;;;;;13.18;71.42;96863.16;5069606;28;20052;-73
2023/05/27 03:17:49;;;;;;;10.55;7.05;;;;;;;13.17;71.35;96877.97;5090194;28;20105;-74
2023/05/27 03:20:16;;;;;;;10.73;6.90;;;;;;;13.16;70.72;96862.69;5074258;28;20388;-74
2023/05/27 03:22:44;;;;;;;12.27;6.88;;;;;;;13.14;70.31;96873.13;5067202;28;20044;-74
2023/05/27 03:25:11;;;;;;;12.05;6.60;;;;;;;13.13;70.16;96866.06;5069344;28;20396;-75
2023/05/27 03:27:37;;;;;;;11.65;6.97;;;;;;;13.16;70.84;96861.88;5069904;28;20045;-74
2023/05/27 03:30:05;;;;;;;10.70;6.50;;;;;;;13.15;71.15;96855.59;5070168;28;20400;-75
2023/05/27 03:32:32;;;;;;;9.60;6.35;;;;;;;13.17;71.95;96861.56;5067487;28;20049;-74
2023/05/27 03:34:58;;;;;;;12.05;6.68;;;;;;;13.19;72.17;96862.03;5073191;28;20582;-74
2023/05/27 03:37:25;;;;;;;8.82;6.43;;;;;;;13.20;71.61;96860.09;5073063;28;20040;-74
2023/05/27 03:39:53;;;;;;;12.18;6.20;;;;;;;13.21;70.56;96862.56;5073946;28;20123;-74
2023/05/27 03:42:19;;;;;;;14.07;6.65;;;;;;;13.22;70.04;96866.09;5070400;28;20044;-74
2023/05/27 03:44:46;;;;;;;10.63;6.05;;;;;;;13.19;69.70;96863.97;5072039;28;20412;-74
2023/05/27 03:47:12;;;;;;;13.73;6.80;;;;;;;13.19;69.68;96863.97;5076513;28;20047;-74
2023/05/27 03:49:39;;;;;;;12.63;6.45;;;;;;;13.16;69.74;96870.09;5072724;28;20051;-74
2023/05/27 03:52:06;;;;;;;12.43;6.72;;;;;;;13.14;69.59;96872.31;5071111;28;20049;-74
2023/05/27 03:54:33;;;;;;;10.20;6.90;;;;;;;13.10;69.87;96872.16;5071497;28;20041;-74
2023/05/27 03:57:01;;;;;;;12.27;5.88;;;;;;;13.07;70.54;96876.34;5068533;28;20096;-74
2023/05/27 03:59:27;;;;;;;9.40;6.53;;;;;;;13.02;70.23;96881.97;5071672;28;20045;-74
2023/05/27 04:01:54;;;;;;;11.93;6.25;;;;;;;13.01;70.34;96879.56;5070102;28;20519;-74
2023/05/27 04:04:20;;;;;;;11.23;6.22;;;;;;;12.98;70.24;96882.94;5068664;28;20040;-74
2023/05/27 04:06:46;;;;;;;9.63;5.85;;;;;;;12.97;70.72;96884.06;5070185;28;20044;-74
2023/05/27 04:09:13;;;;;;;11.77;6.68;;;;;;;12.95;71.10;96876.19;5071576;28;20051;-74
2023/05/27 04:11:39;;;;;;;13.23;6.75;;;;;;;12.99;72.03;96874.41;5070389;28;20072;-74
2023/05/27 04:14:07;;;;;;;10.57;6.47;;;;;;;13.01;72.59;96876.84;5071438;28;20491;-74
2023/05/27 04:16:34;;;;;;;11.93;5.97;;;;;;;13.03;71.83;96871.84;5079795;28;20065;-73
2023/05/27 04:19:01;;;;;;;12.07;6.28;;;;;;;13.06;71.50;96871.22;5073571;28;20051;-74
2023/05/27 04:21:28;;;;;;;11.05;6.07;;;;;;;13.11;72.06;96868.31;5070251;28;20507;-74
2023/05/27 04:23:54;;;;;;;11.48;5.85;;;;;;;13.17;72.04;96877.97;5070732;28;20040;-74
2023/05/27 04:26:21;;;;;;;11.80;6.53;;;;;;;13.20;71.50;96871.84;5070736;28;20067;-74
2023/05/27 04:28:48;;;;;;;9.40;6.30;;;;;;;13.23;70.81;96882.19;5070649;28;20056;-73
2023/05/27 04:31:16;;;;;;;10.32;6.65;;;;;;;13.26;71.02;96887.00;5069694;28;20043;-73
2023/05/27 04:33:44;;;;;;;11.98;6.47;;;;;;;13.31;71.35;96884.13;5066337;28;20063;-75
2023/05/27 04:36:11;;;;;;;12.13;6.28;;;;;;;13.35;71.34;96877.97;5074072;28;20384;-76
2023/05/27 04:38:38;;;;;;;11.88;5.97;;;;;;;13.38;70.65;96882.81;5070761;28;20055;-75
2023/05/27 04:41:04;;;;;;;10.95;6.35;;;;;;;13.43;70.19;96879.91;5068257;28;20511;-75
2023/05/27 04:43:33;;;;;;;11.82;6.30;;;;;;;13.40;70.10;96880.56;5069396;28;20148;-74
2023/05/27 04:46:00;;;;;;;9.00;5.57;;;;;;;13.44;70.66;96876.06;5067616;28;20054;-74
2023/05/27 04:48:28;;;;;;;10.23;5.53;;;;;;;13.47;70.37;96870.75;5066690;28;20040;-74
2023/05/27 04:50:56;;;;;;;10.73;6.05;;;;;;;13.51;71.26;96873.63;5087554;28;20044;-73
2023/05/27 04:53:23;;;;;;;10.73;6.47;;;;;;;13.52;71.45;96877.97;5073990;28;20071;-73
2023/05/27 04:55:49;;;;;;;9.82;5.57;;;;;;;13.57;71.07;96875.06;5068869;28;20055;-73
2023/05/27 04:58:16;;;;;;;13.80;6.20;;;;;;;13.59;70.00;96867.34;5067082;28;20044;-73
2023/05/27 05:00:52;;;;;;;11.07;5.60;;;;;;;13.62;70.01;96865.88;5068892;28;20404;-73
2023/05/27 05:03:21;;;;;;;9.90;6.05;;;;;;;13.67;70.39;96874.72;5070093;28;20063;-73
2023/05/27 05:05:51;;;;;;;10.13;5.85;;;;;;;13.70;70.22;96879.56;5068562;28;20430;-73
2023/05/27 05:08:18;;;;;;;13.13;6.25;;;;;;;13.74;69.42;96879.72;5066231;28;20047;-73
2023/05/27 05:10:44;;;;;;;11.65;5.47;;;;;;;13.79;69.55;96877.59;5070516;28;20052;-73
2023/05/27 05:13:10;;;;;;;10.60;5.68;;;;;;;13.84;70.36;96874.69;5069638;28;20051;-74
2023/05/27 05:15:37;;;;;;;9.95;5.40;;;;;;;13.87;70.30;96877.91;5069433;28;20048;-73
2023/05/27 05:18:04;;;;;;;11.25;5.38;;;;;;;13.80;67.54;96878.41;5067932;28;20133;-74
2023/05/27 05:20:31;;;;;;;10.43;5.03;;;;;;;13.88;66.06;96879.50;5069491;28;20052;-74
2023/05/27 05:22:59;;;;;;;14.57;5.88;;;;;;;13.93;66.57;96884.81;5069989;28;20484;-74
2023/05/27 05:25:26;;;;;;;13.25;5.43;;;;;;;14.09;67.18;96885.88;5067668;28;20123;-73
2023/05/27 05:27:53;;;;;;;8.85;4.53;;;;;;;14.17;68.24;96887.78;5062611;28;20707;-73
2023/05/27 05:30:19;;;;;;;11.52;5.15;;;;;;;14.22;66.68;96884.88;5068274;28;20051;-74
2023/05/27 05:32:46;;;;;;;8.35;4.60;;;;;;;14.28;66.72;96883.56;5069772;28;20045;-73
2023/05/27 05:35:12;;;;;;;9.02;4.45;;;;;;;14.25;64.97;96886.13;5068905;28;20550;-74
2023/05/27 05:37:39;;;;;;;9.52;5.00;;;;;;;14.13;63.63;96886.84;5066530;28;20055;-74
2023/05/27 05:40:08;;;;;;;7.50;4.28;;;;;;;14.13;63.75;96878.63;5068607;28;20044;-74
2023/05/27 05:42:34;;;;;;;11.02;4.88;;;;;;;14.31;64.27;96888.38;5069246;28;20480;-74
2023/05/27 05:45:01;;;;;;;14.32;5.28;;;;;;;14.38;65.24;96893.34;5068792;28;20483;-73
2023/05/27 05:47:27;;;;;;;10.98;4.63;;;;;;;14.46;63.83;96889.78;5064480;28;20036;-74
2023/05/27 05:49:54;;;;;;;10.02;4.72;;;;;;;14.50;64.03;96890.72;5069514;28;20044;-74
2023/05/27 05:52:20;;;;;;;11.88;5.07;;;;;;;14.58;64.00;96886.34;5068954;28;20041;-74
2023/05/27 05:54:46;;;;;;;10.05;4.40;;;;;;;14.64;61.60;96885.03;5067842;28;20044;-73
2023/05/27 05:57:15;;;;;;;14.55;4.80;;;;;;;14.68;62.53;96887.91;5067534;28;20045;-73
2023/05/27 05:59:41;;;;;;;9.60;4.70;;;;;;;14.78;61.07;96882.84;5068454;28;20052;-74
2023/05/27 06:02:08;;;;;;;15.77;4.93;;;;;;;14.78;60.84;96879.31;5068210;28;20052;-74
2023/05/27 06:04:34;;;;;;;12.25;4.63;;;;;;;14.77;58.94;96880.41;5068115;28;20048;-74
2023/05/27 06:07:01;;;;;;;16.23;4.57;;;;;;;14.77;58.48;96886.75;5066862;28;20032;-74
2023/05/27 06:09:28;;;;;;;8.85;4.22;;;;;;;14.82;57.90;96902.16;5068157;28;20037;-74
2023/05/27 06:11:54;;;;;;;13.02;4.45;;;;;;;14.92;57.93;96892.75;5067752;28;20472;-74
2023/05/27 06:14:23;;;;;;;12.48;4.47;;;;;;;14.99;58.02;96895.78;5064369;28;20045;-74
2023/05/27 06:16:49;;;;;;;13.35;4.75;;;;;;;15.14;58.42;96892.47;5079575;28;20605;-74
2023/05/27 06:19:16;;;;;;;8.05;4.32;;;;;;;15.17;58.79;96899.19;5070630;28;20040;-73
2023/05/27 06:21:42;;;;;;;10.73;4.30;;;;;;;15.26;58.75;96892.50;5066539;28;21929;-74
2023/05/27 06:24:09;;;;;;;18.83;4.50;;;;;;;15.24;56.92;96897.50;5068693;28;20037;-74
2023/05/27 06:26:35;;;;;;;11.45;4.53;;;;;;;15.25;56.24;96893.66;5068741;28;20063;-74
2023/05/27 06:29:02;;;;;;;9.13;4.05;;;;;;;15.30;56.16;96900.88;5068753;28;20049;-74
2023/05/27 06:31:30;;;;;;;14.48;4.90;;;;;;;15.47;57.29;96910.91;5068592;28;20123;-74
2023/05/27 06:33:56;;;;;;;11.57;4.40;;;;;;;15.53;55.57;96907.63;5063222;28;20041;-74
2023/05/27 06:36:22;;;;;;;10.02;4.00;;;;;;;15.60;56.21;96894.13;5068156;28;20051;-74
2023/05/27 06:38:49;;;;;;;17.08;4.93;;;;;;;15.64;55.89;96894.31;5068214;28;20040;-73
2023/05/27 06:41:16;;;;;;;9.93;4.10;;;;;;;15.70;56.61;96898.44;5065600;28;20491;-74
2023/05/27 06:43:42;;;;;;;13.05;4.32;;;;;;;15.81;55.65;96896.88;5065751;28;20048;-74
2023/05/27 06:46:09;;;;;;;10.68;4.32;;;;;;;15.82;54.87;96895.75;5068488;28;20044;-75
2023/05/27 06:48:37;;;;;;;11.00;4.90;;;;;;;15.76;54.10;96899.03;5068905;28;20462;-74
2023/05/27 06:51:04;;;;;;;17.42;6.00;;;;;;;15.93;55.03;96896.13;5068000;28;20507;-74
2023/05/27 06:53:30;;;;;;;13.73;4.68;;;;;;;16.09;56.95;96885.28;5068125;28;20044;-74
2023/05/27 06:55:57;;;;;;;11.18;3.92;;;;;;;16.32;55.85;96886.47;5067239;28;20049;-74
2023/05/27 06:58:23;;;;;;;12.07;4.90;;;;;;;16.23;54.47;96893.19;5063166;28;20134;-74
2023/05/27 07:00:50;;;;;;;10.68;4.07;;;;;;;16.25;53.03;96891.72;5068152;28;20053;-75
2023/05/27 07:03:16;;;;;;;9.52;4.28;;;;;;;16.29;54.25;96884.41;5067878;28;20043;-75
2023/05/27 07:05:44;;;;;;;11.82;4.18;;;;;;;16.31;53.58;96884.84;5069788;28;20045;-75
2023/05/27 07:08:11;;;;;;;12.48;4.35;;;;;;;16.35;53.54;96890.47;5071728;28;20055;-76
2023/05/27 07:10:37;;;;;;;12.43;4.57;;;;;;;16.52;54.32;96890.25;5072840;28;20067;-75
2023/05/27 07:13:04;;;;;;;13.60;4.70;;;;;;;16.46;52.59;96885.34;5071934;28;20072;-74
2023/05/27 07:15:30;;;;;;;14.70;4.45;;;;;;;16.58;53.11;96893.56;5070834;28;20040;-74
2023/05/27 07:17:57;;;;;;;14.32;5.00;;;;;;;16.61;54.13;96887.41;5069431;28;20049;-76
2023/05/27 07:20:23;;;;;;;11.40;5.20;;;;;;;16.59;53.47;96884.97;5068139;28;20044;-75
2023/05/27 07:22:51;;;;;;;12.85;4.50;;;;;;;16.84;53.84;96891.31;5071833;28;20446;-76
2023/05/27 07:25:18;;;;;;;16.90;5.10;;;;;;;16.64;52.25;96893.00;5071002;28;20408;-76
2023/05/27 07:27:44;;;;;;;12.10;4.30;;;;;;;16.82;52.30;96890.84;5072759;28;20052;-75
2023/05/27 07:30:11;;;;;;;16.10;4.22;;;;;;;17.00;53.23;96887.84;5069860;28;20127;-75
2023/05/27 07:32:38;;;;;;;9.30;4.18;;;;;;;16.99;52.13;96898.06;5074405;28;20055;-75
2023/05/27 07:35:05;;;;;;;20.00;4.68;;;;;;;17.05;51.77;96884.84;5071646;28;20462;-76
2023/05/27 07:37:32;;;;;;;15.45;4.55;;;;;;;17.19;51.66;96896.31;5072564;28;20128;-76
2023/05/27 07:40:00;;;;;;;10.13;4.07;;;;;;;17.41;54.61;96882.00;5071005;28;20059;-75
2023/05/27 07:42:26;;;;;;;8.32;4.00;;;;;;;17.62;53.81;96884.56;5071787;28;20143;-75
2023/05/27 07:44:54;;;;;;;11.27;4.70;;;;;;;17.51;52.05;96886.22;5078981;28;20045;-76
2023/05/27 07:47:20;;;;;;;11.70;4.30;;;;;;;17.67;54.41;96887.06;5070922;28;20071;-76
2023/05/27 07:49:47;;;;;;;11.07;4.32;;;;;;;17.72;52.11;96878.59;5063698;28;20045;-75
2023/05/27 07:52:13;;;;;;;10.15;4.38;;;;;;;17.72;50.03;96881.34;5070771;28;20055;-76
2023/05/27 07:54:40;;;;;;;13.20;4.82;;;;;;;17.93;54.05;96881.13;5072956;28;20053;-76
2023/05/27 07:57:08;;;;;;;18.15;5.03;;;;;;;18.07;51.23;96875.19;5070336;28;20516;-76
2023/05/27 07:59:34;;;;;;;10.95;4.43;;;;;;;18.15;50.03;96881.69;5071368;28;20044;-75
2023/05/27 08:02:01;;;;;;;11.68;4.25;;;;;;;18.35;52.54;96886.16;5077768;28;20055;-75
2023/05/27 08:04:28;;;;;;;14.93;4.38;;;;;;;18.37;50.73;96877.50;5068568;28;20036;-75
2023/05/27 08:06:54;;;;;;;11.60;4.32;;;;;;;18.47;49.14;96883.28;5071083;28;20041;-76
2023/05/27 08:09:21;;;;;;;11.48;3.80;;;;;;;18.81;50.32;96883.75;5070109;28;20049;-76
2023/05/27 08:11:47;;;;;;;13.45;5.38;;;;;;;18.88;48.50;96885.88;5071855;28;20041;-75
2023/05/27 08:14:15;;;;;;;11.45;4.95;;;;;;;19.10;47.88;96884.38;5070184;28;20044;-75
2023/05/27 08:16:42;;;;;;;11.07;4.47;;;;;;;19.36;48.29;96879.03;5070217;28;20172;-75
2023/05/27 08:19:08;;;;;;;9.93;4.20;;;;;;;19.53;50.14;96875.06;5070762;28;20053;-76
2023/05/27 08:21:36;;;;;;;13.02;4.43;;;;;;;19.57;47.13;96875.94;5070981;28;20052;-75
2023/05/27 08:24:05;;;;;;;12.27;4.32;;;;;;;19.72;49.08;96874.28;5070691;28;20474;-76
2023/05/27 08:26:31;;;;;;;13.45;4.80;;;;;;;19.64;46.82;96870.59;5071140;28;20063;-75
2023/05/27 08:28:58;;;;;;;10.05;4.25;;;;;;;19.71;47.99;96867.97;5069432;28;20052;-76
2023/05/27 08:31:26;;;;;;;10.20;4.30;;;;;;;19.97;48.60;96875.56;5076949;28;20051;-75
2023/05/27 08:33:52;;;;;;;9.35;4.35;;;;;;;20.19;49.87;96878.72;5075177;28;20045;-75
2023/05/27 08:36:19;;;;;;;11.70;4.60;;;;;;;20.23;47.67;96871.28;5069611;28;20101;-75
2023/05/27 08:38:45;;;;;;;14.48;4.57;;;;;;;20.17;47.52;96875.53;5070016;28;20041;-75
2023/05/27 08:41:12;;;;;;;11.48;4.40;;;;;;;20.08;46.41;96864.69;5064100;28;20037;-75
2023/05/27 08:43:39;;;;;;;12.82;5.00;;;;;;;20.08;46.27;96864.69;5070131;28;20045;-76
2023/05/27 08:46:05;;;;;;;13.02;4.90;;;;;;;20.31;47.44;96861.97;5072722;28;20060;-76
2023/05/27 08:48:33;;;;;;;12.02;5.13;;;;;;;20.14;46.03;96865.19;5087448;28;20048;-76
2023/05/27 08:51:01;;;;;;;13.35;4.88;;;;;;;20.49;47.20;96852.00;5076865;28;20694;-75
2023/05/27 08:53:29;;;;;;;15.07;5.43;;;;;;;20.33;46.39;96859.63;5076257;28;20050;-75
2023/05/27 08:55:58;;;;;;;13.00;4.75;;;;;;;20.42;44.90;96857.41;5073370;28;20056;-75
2023/05/27 08:58:25;;;;;;;11.68;4.55;;;;;;;20.52;44.33;96856.81;5065951;28;20040;-76
2023/05/27 09:00:52;;;;;;;13.93;4.57;;;;;;;20.46;44.81;96857.44;5079492;28;20589;-75
2023/05/27 09:03:19;;;;;;;10.32;4.95;;;;;;;20.70;46.23;96853.53;5076887;28;20415;-76
2023/05/27 09:05:46;;;;;;;12.45;5.28;;;;;;;20.61;47.28;96852.97;5075791;28;20072;-76
2023/05/27 09:08:13;;;;;;;10.23;4.22;;;;;;;20.87;47.00;96852.19;5069788;28;20045;-74
2023/05/27 09:10:42;;;;;;;17.80;5.22;;;;;;;20.90;46.33;96843.94;5078400;28;20044;-74
2023/05/27 09:13:09;;;;;;;12.00;4.97;;;;;;;20.78;46.87;96847.72;5073733;28;20174;-75
2023/05/27 09:15:35;;;;;;;12.32;5.13;;;;;;;20.72;48.50;96845.63;5088121;28;20053;-75
2023/05/27 09:18:03;;;;;;;11.25;4.82;;;;;;;20.67;46.45;96848.72;5083181;28;20047;-74
2023/05/27 09:20:30;;;;;;;12.10;5.10;;;;;;;20.55;44.70;96850.53;5078610;28;20055;-74
2023/05/27 09:22:59;;;;;;;12.30;4.95;;;;;;;20.65;44.98;96848.31;5081037;28;20037;-75
2023/05/27 09:25:27;;;;;;;10.30;4.97;;;;;;;20.79;45.28;96848.53;5077076;28;20055;-74
2023/05/27 09:27:54;;;;;;;10.77;4.78;;;;;;;20.83;45.37;96841.88;5076007;28;20063;-74
2023/05/27 09:30:21;;;;;;;9.75;4.82;;;;;;;21.05;46.72;96839.41;5077013;28;20046;-75
2023/05/27 09:32:48;;;;;;;10.88;5.05;;;;;;;21.21;48.09;96822.63;5094089;28;20048;-75
2023/05/27 09:35:16;;;;;;;11.88;4.88;;;;;;;21.01;46.38;96833.81;5065260;28;20040;-75
2023/05/27 09:37:45;;;;;;;11.98;4.70;;;;;;;20.90;45.51;96830.09;5069549;28;20044;-74
2023/05/27 09:40:15;;;;;;;11.95;5.15;;;;;;;20.51;45.85;96827.53;5074414;28;20041;-74
2023/05/27 09:42:45;;;;;;;13.85;5.43;;;;;;;20.96;46.13;96828.59;5080192;28;20055;-74
2023/05/27 09:45:13;;;;;;;11.95;5.43;;;;;;;21.09;44.80;96818.91;5088933;28;20042;-75
2023/05/27 09:47:41;;;;;;;14.73;4.93;;;;;;;21.17;46.00;96824.53;5078764;28;20049;-74
2023/05/27 09:50:09;;;;;;;13.68;5.22;;;;;;;21.39;48.76;96820.88;5078480;28;20048;-75
2023/05/27 09:52:39;;;;;;;11.88;4.97;;;;;;;21.32;45.12;96823.56;5091269;28;20044;-74
2023/05/27 09:55:07;;;;;;;11.57;5.35;;;;;;;21.42;45.54;96817.38;5069808;28;20067;-74
2023/05/27 09:57:36;;;;;;;11.25;5.03;;;;;;;21.65;46.15;96816.44;5072339;28;20447;-74
2023/05/27 10:00:09;;;;;;;13.30;4.80;;;;;;;21.49;44.84;96813.88;5072440;28;20300;-75
2023/05/27 10:02:38;;;;;;;13.77;5.30;;;;;;;21.33;44.87;96811.31;5067250;28;20496;-75
2023/05/27 10:05:08;;;;;;;10.80;5.03;;;;;;;21.65;47.27;96806.16;5070097;28;20384;-74
2023/05/27 10:07:37;;;;;;;10.30;4.60;;;;;;;21.79;46.59;96811.84;5069915;28;20504;-74
2023/05/27 10:10:06;;;;;;;12.30;4.45;;;;;;;21.72;44.98;96805.44;5070010;28;20117;-75
2023/05/27 10:12:33;;;;;;;14.73;4.38;;;;;;;21.83;45.42;96800.81;5071142;28;20163;-74
2023/05/27 10:15:01;;;;;;;9.95;4.88;;;;;;;21.79;45.99;96797.19;5069079;28;20036;-75
2023/05/27 10:17:29;;;;;;;11.80;4.97;;;;;;;21.76;44.27;96800.72;5071067;28;20040;-75
2023/05/27 10:19:57;;;;;;;9.57;4.78;;;;;;;21.86;45.39;96805.56;5071258;28;20044;-75
2023/05/27 10:22:24;;;;;;;10.75;4.88;;;;;;;21.83;43.64;96800.81;5070678;28;20045;-74
2023/05/27 10:24:53;;;;;;;14.15;4.72;;;;;;;21.82;43.16;96788.09;5069587;28;20055;-75
2023/05/27 10:27:21;;;;;;;14.00;4.97;;;;;;;21.61;44.08;96791.44;5070592;28;20780;-74
2023/05/27 10:29:57;;;;;;;10.38;4.50;;;;;;;21.80;44.40;96779.38;5071078;28;20041;-75
2023/05/27 10:32:25;;;;;;;11.50;4.43;;;;;;;21.71;40.67;96798.28;5067744;28;20491;-74
2023/05/27 10:34:53;;;;;;;15.70;4.43;;;;;;;21.82;40.71;96797.25;5069315;28;20044;-75
2023/05/27 10:37:23;;;;;;;11.15;4.50;;;;;;;21.84;42.04;96799.63;5069407;28;20048;-74
2023/05/27 10:39:56;;;;;;;10.70;4.15;;;;;;;22.14;44.46;96789.25;5066764;28;20475;-74
2023/05/27 10:42:24;;;;;;;12.10;5.15;;;;;;;21.95;43.86;96794.97;5074402;28;20043;-74
2023/05/27 10:44:52;;;;;;;10.02;4.00;;;;;;;22.04;41.55;96792.69;5069647;28;20127;-75
2023/05/27 10:47:29;;;;;;;11.20;4.60;;;;;;;22.19;44.30;96784.53;5065964;28;20898;-74
2023/05/27 10:49:58;;;;;;;9.45;4.07;;;;;;;22.39;44.13;96791.41;5065431;28;20508;-74
2023/05/27 10:52:26;;;;;;;11.85;4.63;;;;;;;22.16;43.11;96779.75;5067888;28;20040;-74
2023/05/27 10:54:54;;;;;;;7.88;4.15;;;;;;;22.21;42.30;96779.38;5069057;28;20041;-73
2023/05/27 10:57:22;;;;;;;8.35;4.30;;;;;;;22.37;43.85;96777.94;5067442;28;20128;-74
2023/05/27 10:59:49;;;;;;;10.82;4.20;;;;;;;22.16;44.03;96779.75;5068071;28;20052;-73
2023/05/27 11:02:17;;;;;;;9.32;4.60;;;;;;;22.21;42.92;96779.38;5065070;28;20037;-75
2023/05/27 11:04:43;;;;;;;10.60;4.13;;;;;;;22.37;45.13;96774.38;5068135;28;20397;-73
2023/05/27 11:07:11;;;;;;;9.00;3.45;;;;;;;22.46;42.34;96772.06;5067522;28;20041;-77
2023/05/27 11:09:44;;;;;;;8.10;3.72;;;;;;;22.37;42.25;96775.16;5068670;28;20059;-75
2023/05/27 11:12:16;;;;;;;;;;;;;;;22.32;41.56;96780.28;5067558;28;20057;-74
2023/05/27 11:14:42;;;;;;;12.00;4.35;;;;;;;22.20;38.80;96775.03;5067011;28;19964;-74
2023/05/27 11:17:10;;;;;;;10.35;4.05;;;;;;;22.33;43.54;96763.22;5077498;28;20044;-74
2023/05/27 11:19:39;;;;;;;10.90;4.05;;;;;;;22.53;42.39;96766.56;5066956;28;20512;-74
2023/05/27 11:22:05;;;;;;;10.50;3.70;;;;;;;22.71;43.14;96763.09;5067553;28;20052;-74
2023/05/27 11:24:33;;;;;;;9.07;3.78;;;;;;;22.69;38.82;96765.47;5064495;28;20044;-74
2023/05/27 11:27:00;;;;;;;8.75;3.92;;;;;;;22.73;41.09;96758.75;5067310;28;20052;-74